Time;durP1;ratioP1;P1;durP2;ratioP2;P2;SDS_P1;SDS_P2;PMS_P1;PMS_P2;Temp;Humidity;BMP_temperature;BMP_pressure;BME280_temperature;BME280_humidity;BME280_pressure;Samples;Min_cycle;Max_cycle;Signal;HPM_P1;HPM_P2
2023/01/02 00:00:51;;;;;;;5.25;2.33;;;9.70;99.90;;;;;;5028972;28;20052;-90
2023/01/02 00:03:17;;;;;;;11.73;2.17;;;9.70;99.90;;;;;;5013947;28;20490;-89
2023/01/02 00:05:43;;;;;;;3.97;1.67;;;9.70;99.90;;;;;;5012089;28;20412;-89
2023/01/02 00:08:08;;;;;;;3.88;1.98;;;9.70;99.90;;;;;;5030400;28;20048;-88
2023/01/02 00:10:40;;;;;;;6.95;2.10;;;9.80;99.90;;;;;;5014635;28;20049;-89
2023/01/02 00:13:08;;;;;;;8.23;2.60;;;9.70;99.90;;;;;;4996854;28;20048;-89
2023/01/02 00:15:34;;;;;;;5.82;1.98;;;10.80;99.90;;;;;;4997378;28;20049;-89
2023/01/02 00:18:00;;;;;;;3.58;1.90;;;9.80;99.90;;;;;;5011855;28;20127;-88
2023/01/02 00:20:25;;;;;;;5.05;1.95;;;10.30;99.90;;;;;;4997862;28;20099;-88
2023/01/02 00:22:51;;;;;;;8.02;2.55;;;9.80;99.90;;;;;;5028313;28;20404;-88
2023/01/02 00:25:17;;;;;;;5.28;2.58;;;9.80;99.90;;;;;;5013336;28;20043;-87
2023/01/02 00:27:43;;;;;;;7.32;2.63;;;9.80;99.90;;;;;;5012855;28;20060;-88
2023/01/02 00:30:09;;;;;;;10.50;3.53;;;10.20;99.90;;;;;;5012284;28;20400;-88
2023/01/02 00:32:35;;;;;;;6.93;2.83;;;9.80;99.90;;;;;;5013906;28;20211;-87
2023/01/02 00:35:01;;;;;;;6.00;2.80;;;9.80;99.90;;;;;;4995580;28;20049;-87
2023/01/02 00:37:26;;;;;;;12.07;4.28;;;10.00;99.90;;;;;;5031947;28;20090;-87
2023/01/02 00:39:52;;;;;;;6.47;3.50;;;9.80;99.90;;;;;;4996752;28;20049;-87
2023/01/02 00:42:18;;;;;;;6.35;3.83;;;9.80;99.90;;;;;;4996460;28;20040;-87
2023/01/02 00:44:43;;;;;;;9.20;4.13;;;10.80;99.90;;;;;;5028336;28;20059;-87
2023/01/02 00:47:09;;;;;;;8.63;4.30;;;9.90;99.90;;;;;;5028612;28;20045;-87
2023/01/02 00:49:35;;;;;;;8.00;4.30;;;9.90;99.90;;;;;;4996713;28;20045;-87
2023/01/02 00:52:01;;;;;;;8.00;3.58;;;9.90;99.90;;;;;;5028266;28;20091;-86
2023/01/02 00:54:27;;;;;;;7.32;5.07;;;10.00;99.90;;;;;;5012881;28;20045;-86
2023/01/02 00:56:52;;;;;;;5.05;3.67;;;10.00;99.90;;;;;;5028059;28;20044;-86
2023/01/02 00:59:18;;;;;;;8.63;4.25;;;10.00;99.90;;;;;;4980160;28;20044;-86
2023/01/02 01:01:44;;;;;;;5.10;3.67;;;10.10;99.90;;;;;;5011112;28;20096;-86
2023/01/02 01:04:10;;;;;;;6.93;3.47;;;10.70;99.90;;;;;;5028553;28;20060;-86
2023/01/02 01:06:38;;;;;;;8.77;3.63;;;10.10;99.90;;;;;;5028528;28;20079;-86
2023/01/02 01:09:04;;;;;;;3.22;2.38;;;10.20;99.90;;;;;;5011518;28;20052;-86
2023/01/02 01:11:30;;;;;;;7.45;3.05;;;10.20;99.90;;;;;;5028942;28;20052;-85
2023/01/02 01:13:56;;;;;;;8.23;2.97;;;10.20;99.90;;;;;;5010989;28;20368;-86
2023/01/02 01:16:22;;;;;;;5.28;3.00;;;10.30;99.90;;;;;;5029034;28;20338;-85
2023/01/02 01:18:48;;;;;;;4.57;2.58;;;10.30;99.90;;;;;;5011699;28;20036;-85
2023/01/02 01:21:19;;;;;;;5.82;3.00;;;10.30;99.90;;;;;;5011968;28;20036;-85
2023/01/02 01:23:49;;;;;;;8.05;2.53;;;10.30;99.90;;;;;;5028855;28;20049;-85
2023/01/02 01:26:15;;;;;;;4.55;2.85;;;10.50;99.90;;;;;;5011212;28;20048;-85
2023/01/02 01:28:41;;;;;;;4.10;2.65;;;10.40;99.90;;;;;;4996163;28;20344;-85
2023/01/02 01:31:10;;;;;;;6.05;2.75;;;10.40;99.90;;;;;;4994762;28;20037;-85
2023/01/02 01:33:37;;;;;;;4.55;2.30;;;10.40;99.90;;;;;;5012233;28;20126;-85
2023/01/02 01:36:09;;;;;;;5.97;2.90;;;10.30;99.90;;;;;;5027845;28;20056;-85
2023/01/02 01:38:35;;;;;;;4.75;2.60;;;10.50;99.90;;;;;;5027949;28;20041;-85
2023/01/02 01:41:01;;;;;;;7.10;3.15;;;10.50;99.90;;;;;;4979611;28;20051;-85
2023/01/02 01:43:41;;;;;;;5.07;3.33;;;10.50;99.90;;;;;;5027425;28;20045;-85
2023/01/02 01:46:46;;;;;;;5.63;3.60;;;10.50;99.90;;;;;;5012180;28;20080;-85
2023/01/02 01:49:33;;;;;;;6.15;3.60;;;10.50;99.90;;;;;;4951733;28;20046;-86
2023/01/02 01:52:06;;;;;;;5.05;3.70;;;10.50;99.90;;;;;;5023603;28;20538;-85
2023/01/02 01:54:34;;;;;;;;;;;10.60;99.90;;;;;;5012576;28;20061;-85
2023/01/02 01:57:07;;;;;;;8.60;3.70;;;10.60;99.90;;;;;;5027351;28;19921;-85
2023/01/02 01:59:33;;;;;;;10.25;4.50;;;10.60;99.90;;;;;;5011796;28;20487;-85
2023/01/02 02:01:59;;;;;;;9.32;4.20;;;11.20;99.90;;;;;;5011352;28;20064;-86
2023/01/02 02:04:26;;;;;;;8.32;4.53;;;10.60;99.90;;;;;;5029723;28;20582;-85
2023/01/02 02:06:53;;;;;;;8.50;4.88;;;10.60;99.90;;;;;;5015943;28;20080;-85
2023/01/02 02:09:24;;;;;;;10.27;4.60;;;10.60;99.90;;;;;;5031653;28;20460;-85
2023/01/02 02:11:53;;;;;;;7.25;4.35;;;10.70;99.90;;;;;;5015707;28;20037;-85
2023/01/02 02:14:18;;;;;;;9.57;5.47;;;10.60;99.90;;;;;;5031110;28;20045;-86
2023/01/02 02:17:13;;;;;;;8.75;3.97;;;10.70;99.90;;;;;;5015462;28;20553;-85
2023/01/02 02:19:47;;;;;;;7.60;4.45;;;10.70;99.90;;;;;;5015470;28;20566;-86
2023/01/02 02:22:37;;;;;;;7.43;4.53;;;10.70;99.90;;;;;;5014517;28;20080;-86
2023/01/02 02:25:09;;;;;;;7.82;4.38;;;10.70;99.90;;;;;;5015560;28;20048;-86
2023/01/02 02:28:29;;;;;;;7.25;5.10;;;10.70;99.90;;;;;;5031522;28;20041;-86
2023/01/02 02:31:17;;;;;;;4.88;3.90;;;10.80;99.90;;;;;;5022141;28;20053;-86
2023/01/02 02:33:46;;;;;;;8.05;5.05;;;10.80;99.90;;;;;;5030779;28;20069;-86
2023/01/02 02:36:38;;;;;;;6.55;4.35;;;11.00;99.90;;;;;;5031112;28;20128;-86
2023/01/02 02:39:33;;;;;;;6.68;4.55;;;10.80;99.90;;;;;;5030662;28;20056;-86
2023/01/02 02:42:02;;;;;;;7.15;4.28;;;10.80;99.90;;;;;;4993092;28;20053;-85
2023/01/02 02:45:12;;;;;;;8.43;4.25;;;10.80;99.90;;;;;;5030393;28;20051;-86
2023/01/02 02:47:50;;;;;;;7.60;4.68;;;10.80;99.90;;;;;;5031094;28;20049;-86
2023/01/02 02:50:28;;;;;;;7.00;4.63;;;10.80;99.90;;;;;;5015148;28;20052;-86
2023/01/02 02:53:04;;;;;;;6.13;4.70;;;10.80;99.90;;;;;;5030802;28;20067;-85
2023/01/02 02:55:44;;;;;;;11.02;4.93;;;10.80;99.90;;;;;;5014618;28;20040;-86
2023/01/02 02:58:13;;;;;;;9.15;4.82;;;10.90;99.90;;;;;;5031360;28;20045;-86
2023/01/02 03:00:39;;;;;;;9.82;4.80;;;10.90;99.90;;;;;;5030618;28;20465;-86
2023/01/02 03:03:22;;;;;;;7.80;4.68;;;10.90;99.90;;;;;;5049155;28;20088;-85
2023/01/02 03:06:10;;;;;;;8.00;4.90;;;11.00;99.90;;;;;;5029956;28;20085;-86
2023/01/02 03:09:13;;;;;;;6.80;5.00;;;10.90;99.90;;;;;;5030842;28;20381;-85
2023/01/02 03:11:42;;;;;;;;;;;11.00;99.90;;;;;;4985160;28;20060;-86
2023/01/02 03:14:20;;;;;;;6.10;3.90;;;11.00;99.90;;;;;;5029517;28;19927;-86
2023/01/02 03:16:50;;;;;;;7.70;4.43;;;11.00;99.90;;;;;;5029454;28;20041;-86
2023/01/02 03:19:37;;;;;;;10.30;5.00;;;11.00;99.90;;;;;;5031232;28;20049;-85
2023/01/02 03:22:25;;;;;;;7.53;4.30;;;11.00;99.90;;;;;;5014549;28;20415;-85
2023/01/02 03:24:53;;;;;;;7.93;5.25;;;11.10;99.90;;;;;;5014755;28;20614;-86
2023/01/02 03:27:22;;;;;;;9.57;5.38;;;11.00;99.90;;;;;;5013723;28;20373;-86
2023/01/02 03:30:01;;;;;;;10.68;4.88;;;11.00;99.90;;;;;;5030441;28;20037;-86
2023/01/02 03:32:32;;;;;;;11.07;4.97;;;11.00;99.90;;;;;;5030473;28;20048;-85
2023/01/02 03:35:02;;;;;;;7.22;4.50;;;11.00;99.90;;;;;;5029287;28;20049;-85
2023/01/02 03:37:32;;;;;;;8.82;4.97;;;11.00;99.90;;;;;;5030685;28;20303;-85
2023/01/02 03:40:03;;;;;;;6.30;4.65;;;11.10;99.90;;;;;;5012743;28;20543;-85
2023/01/02 03:42:34;;;;;;;8.57;4.78;;;11.10;99.90;;;;;;5030235;28;20052;-85
2023/01/02 03:45:28;;;;;;;8.70;5.43;;;11.10;99.90;;;;;;5030292;28;20044;-85
2023/01/02 03:48:13;;;;;;;9.18;5.20;;;11.10;99.90;;;;;;5013065;28;20049;-84
2023/01/02 03:50:51;;;;;;;18.00;6.25;;;11.10;99.90;;;;;;5030470;28;20939;-85
2023/01/02 03:53:18;;;;;;;11.02;5.75;;;11.10;99.90;;;;;;5030109;28;20136;-85
2023/01/02 03:56:06;;;;;;;14.13;5.78;;;11.10;99.90;;;;;;5029654;28;20080;-85
2023/01/02 03:58:48;;;;;;;10.00;6.28;;;11.10;99.90;;;;;;5030501;28;20045;-85
2023/01/02 04:01:23;;;;;;;13.45;6.50;;;11.10;99.90;;;;;;5028345;28;20053;-85
2023/01/02 04:03:59;;;;;;;13.55;6.07;;;11.10;99.90;;;;;;5013399;28;20477;-84
2023/01/02 04:06:32;;;;;;;13.82;6.82;;;11.20;99.90;;;;;;5030075;28;20404;-86
2023/01/02 04:09:19;;;;;;;13.35;6.88;;;11.30;99.90;;;;;;5029127;28;20143;-85
2023/01/02 04:11:52;;;;;;;13.88;7.28;;;11.20;99.90;;;;;;5013789;28;20135;-84
2023/01/02 04:14:24;;;;;;;15.38;8.23;;;11.50;99.90;;;;;;5028962;28;20052;-84
2023/01/02 04:16:52;;;;;;;14.20;7.50;;;11.20;99.90;;;;;;5013281;28;20036;-85
2023/01/02 04:19:40;;;;;;;13.75;7.57;;;11.20;99.90;;;;;;5029454;28;20489;-84
2023/01/02 04:22:13;;;;;;;18.98;7.88;;;11.20;99.90;;;;;;5028565;28;20091;-85
2023/01/02 04:24:46;;;;;;;26.55;7.78;;;11.20;99.90;;;;;;5030153;28;20037;-85
2023/01/02 04:27:18;;;;;;;16.95;8.18;;;11.20;99.90;;;;;;5028811;28;20045;-85
2023/01/02 04:29:44;;;;;;;21.35;8.98;;;11.20;99.90;;;;;;5029527;28;20045;-84
2023/01/02 04:32:35;;;;;;;18.73;7.68;;;11.20;99.90;;;;;;5013464;28;20045;-85
2023/01/02 04:35:07;;;;;;;15.90;8.88;;;11.20;99.90;;;;;;5013170;28;20045;-85
2023/01/02 04:37:40;;;;;;;24.63;8.63;;;11.20;99.90;;;;;;5030566;28;20165;-85
2023/01/02 04:40:30;;;;;;;11.82;7.88;;;11.20;99.90;;;;;;5013382;28;20041;-85
2023/01/02 04:42:56;;;;;;;17.17;8.15;;;11.20;99.90;;;;;;5028985;28;20207;-85
2023/01/02 04:45:22;;;;;;;17.75;8.07;;;11.60;99.90;;;;;;5031383;28;20145;-85
2023/01/02 04:47:48;;;;;;;12.73;7.97;;;11.20;99.90;;;;;;5012672;28;20041;-85
2023/01/02 04:50:14;;;;;;;14.73;8.18;;;11.30;99.90;;;;;;5029467;28;20128;-86
2023/01/02 04:52:40;;;;;;;14.20;8.43;;;11.20;99.90;;;;;;5011946;28;20144;-86
2023/01/02 04:55:08;;;;;;;11.90;7.75;;;11.20;99.90;;;;;;4996441;28;20124;-86
2023/01/02 04:57:34;;;;;;;17.23;9.05;;;11.30;99.90;;;;;;5012483;28;20049;-86
2023/01/02 05:00:00;;;;;;;13.75;7.43;;;11.20;99.90;;;;;;4995580;28;20086;-87
2023/01/02 05:02:25;;;;;;;12.57;7.82;;;11.30;99.90;;;;;;5011966;28;20061;-86
2023/01/02 05:04:51;;;;;;;14.40;7.43;;;11.30;99.90;;;;;;5010721;28;20059;-86
2023/01/02 05:07:17;;;;;;;14.20;7.05;;;11.30;99.90;;;;;;5011990;28;20045;-87
2023/01/02 05:09:42;;;;;;;17.70;9.00;;;11.30;99.90;;;;;;4993259;28;20053;-86
2023/01/02 05:12:08;;;;;;;16.45;7.57;;;11.20;99.90;;;;;;5011665;28;20048;-87
2023/01/02 05:14:34;;;;;;;11.60;6.68;;;11.30;99.90;;;;;;4994074;28;20131;-87
2023/01/02 05:17:00;;;;;;;9.77;6.10;;;11.30;99.90;;;;;;4994346;28;20098;-86
2023/01/02 05:19:25;;;;;;;10.00;5.70;;;11.30;99.90;;;;;;5027744;28;20462;-89
2023/01/02 05:24:38;;;;;;;11.23;4.97;;;11.30;99.90;;;;;;5028378;28;20052;-85
2023/01/02 05:27:03;;;;;;;7.75;4.18;;;11.30;99.90;;;;;;5009632;28;20087;-86
2023/01/02 05:29:29;;;;;;;8.73;4.65;;;11.30;99.90;;;;;;5027100;28;20076;-85
2023/01/02 05:31:55;;;;;;;8.32;4.65;;;11.30;99.90;;;;;;5011008;28;20602;-84
2023/01/02 05:34:20;;;;;;;6.15;3.88;;;11.70;99.90;;;;;;5026251;28;20071;-85
2023/01/02 05:36:46;;;;;;;7.03;4.00;;;11.30;99.90;;;;;;4994985;28;20037;-83
2023/01/02 05:39:13;;;;;;;6.65;4.28;;;11.30;99.90;;;;;;4992745;28;20133;-86
2023/01/02 05:41:40;;;;;;;5.78;4.53;;;11.30;99.90;;;;;;5011270;28;20060;-84
2023/01/02 05:44:07;;;;;;;6.45;3.70;;;11.30;99.90;;;;;;5025621;28;20041;-86
2023/01/02 05:46:33;;;;;;;7.15;3.63;;;11.30;99.90;;;;;;5027037;28;20056;-85
2023/01/02 05:48:59;;;;;;;5.97;4.43;;;11.30;99.90;;;;;;5027205;28;20045;-85
2023/01/02 05:51:25;;;;;;;4.93;3.90;;;11.30;99.90;;;;;;4977534;28;20187;-85
2023/01/02 05:53:54;;;;;;;6.55;4.32;;;11.20;99.90;;;;;;5010863;28;20144;-84
2023/01/02 05:56:20;;;;;;;5.32;3.92;;;11.20;99.90;;;;;;5025757;28;20438;-85
2023/01/02 05:58:48;;;;;;;4.65;3.60;;;11.30;99.90;;;;;;5027692;28;20041;-85
2023/01/02 06:01:16;;;;;;;5.82;3.92;;;11.30;99.90;;;;;;5025397;28;20052;-85
2023/01/02 06:03:46;;;;;;;7.78;4.47;;;11.20;99.90;;;;;;5024144;28;20042;-85
2023/01/02 06:06:13;;;;;;;4.38;3.47;;;11.20;99.90;;;;;;5023956;28;20678;-85
2023/01/02 06:08:39;;;;;;;4.50;3.10;;;11.20;99.90;;;;;;5024810;28;20579;-85
2023/01/02 06:11:05;;;;;;;5.97;3.33;;;11.30;99.90;;;;;;5024671;28;20128;-86
2023/01/02 06:13:32;;;;;;;5.15;4.20;;;11.20;99.90;;;;;;5005545;28;20073;-86
2023/01/02 06:16:00;;;;;;;4.15;3.08;;;11.20;99.90;;;;;;5024251;28;20042;-86
2023/01/02 06:18:26;;;;;;;6.32;3.50;;;11.20;99.90;;;;;;5022012;28;20053;-86
2023/01/02 06:20:58;;;;;;;3.92;3.15;;;11.30;99.90;;;;;;5007381;28;20409;-86
2023/01/02 06:23:24;;;;;;;3.80;3.40;;;11.30;99.90;;;;;;5023348;28;20050;-86
2023/01/02 06:25:49;;;;;;;4.18;3.65;;;11.20;99.90;;;;;;5006615;28;20056;-86
2023/01/02 06:28:15;;;;;;;5.25;3.30;;;11.20;99.90;;;;;;5024154;28;20547;-85
2023/01/02 06:30:41;;;;;;;5.85;3.47;;;11.20;99.90;;;;;;5022219;28;20555;-85
2023/01/02 06:33:06;;;;;;;4.60;3.10;;;11.30;99.90;;;;;;5024040;28;20041;-85
2023/01/02 06:35:32;;;;;;;4.53;3.00;;;11.30;99.90;;;;;;4989281;28;20037;-85
2023/01/02 06:37:58;;;;;;;6.13;3.10;;;11.30;99.90;;;;;;5007312;28;20069;-86
2023/01/02 06:40:23;;;;;;;4.53;2.85;;;11.30;99.90;;;;;;5023319;28;20045;-85
2023/01/02 06:42:49;;;;;;;3.63;2.67;;;11.30;99.90;;;;;;4989881;28;20041;-87
2023/01/02 06:45:15;;;;;;;3.40;2.70;;;11.20;99.90;;;;;;4991115;28;20053;-86
2023/01/02 06:47:41;;;;;;;4.13;2.65;;;11.30;99.90;;;;;;4988894;28;20084;-85
2023/01/02 06:50:07;;;;;;;2.88;2.10;;;11.20;99.90;;;;;;4992570;28;20042;-84
2023/01/02 06:52:33;;;;;;;3.45;2.63;;;11.20;99.90;;;;;;5009003;28;20049;-85
2023/01/02 06:54:58;;;;;;;5.43;2.97;;;11.10;99.90;;;;;;5027329;28;20122;-84
2023/01/02 06:57:24;;;;;;;3.88;3.35;;;11.70;99.90;;;;;;5026522;28;20192;-83
2023/01/02 06:59:50;;;;;;;6.43;3.40;;;11.10;99.90;;;;;;5010129;28;20091;-80
2023/01/02 07:02:15;;;;;;;6.82;3.92;;;11.10;99.90;;;;;;5010503;28;20053;-84
2023/01/02 07:04:41;;;;;;;5.28;4.78;;;11.10;99.90;;;;;;5009475;28;20049;-84
2023/01/02 07:07:07;;;;;;;5.93;4.85;;;11.00;99.90;;;;;;5010824;28;20128;-83
2023/01/02 07:09:33;;;;;;;4.05;3.25;;;11.00;99.90;;;;;;5008509;28;20049;-82
2023/01/02 07:11:59;;;;;;;4.78;3.47;;;10.90;99.90;;;;;;4994639;28;20408;-83
2023/01/02 07:14:25;;;;;;;5.40;3.30;;;10.70;99.90;;;;;;5009477;28;20041;-83
2023/01/02 07:16:51;;;;;;;4.78;2.80;;;10.50;99.90;;;;;;4993505;28;20434;-82
2023/01/02 07:19:17;;;;;;;6.03;2.33;;;10.30;99.90;;;;;;5026491;28;20064;-84
2023/01/02 07:21:43;;;;;;;6.05;3.28;;;10.10;99.90;;;;;;5025339;28;20576;-82
2023/01/02 07:24:14;;;;;;;5.22;2.25;;;10.00;99.90;;;;;;5027219;28;20099;-82
2023/01/02 07:26:40;;;;;;;4.20;1.73;;;9.80;99.90;;;;;;5025141;28;20061;-82
2023/01/02 07:29:06;;;;;;;2.78;1.40;;;9.80;99.90;;;;;;5028330;28;20044;-84
2023/01/02 07:31:32;;;;;;;3.72;1.20;;;9.60;99.90;;;;;;5012442;28;20124;-86
2023/01/02 07:33:58;;;;;;;1.25;0.70;;;9.50;99.90;;;;;;4993592;28;20529;-83
2023/01/02 07:36:24;;;;;;;0.82;0.30;;;9.50;99.90;;;;;;4977382;28;20041;-83
2023/01/02 07:38:51;;;;;;;1.98;0.25;;;9.30;99.90;;;;;;4992733;28;20112;-83
2023/01/02 07:41:18;;;;;;;0.60;0.20;;;9.20;99.90;;;;;;5026465;28;20060;-82
2023/01/02 07:43:46;;;;;;;1.88;0.40;;;9.30;99.90;;;;;;5024191;28;20041;-82
2023/01/02 07:46:14;;;;;;;1.75;0.30;;;9.10;99.90;;;;;;5027725;28;20485;-82
2023/01/02 07:48:41;;;;;;;2.22;0.40;;;9.00;99.90;;;;;;5025205;28;20111;-82
2023/01/02 07:51:07;;;;;;;2.90;0.52;;;8.90;99.90;;;;;;5009567;28;20144;-83
2023/01/02 07:53:33;;;;;;;1.95;0.82;;;8.90;99.90;;;;;;5009889;28;20045;-84
2023/01/02 07:56:00;;;;;;;2.17;0.40;;;8.80;99.90;;;;;;5024728;28;20485;-82
2023/01/02 07:58:27;;;;;;;4.70;0.30;;;9.10;99.90;;;;;;5009752;28;20041;-82
2023/01/02 08:00:53;;;;;;;1.05;0.40;;;8.70;99.90;;;;;;5006990;28;20037;-80
2023/01/02 08:03:19;;;;;;;1.77;0.30;;;8.70;99.90;;;;;;5025191;28;20053;-81
2023/01/02 08:05:45;;;;;;;1.23;0.30;;;8.70;99.90;;;;;;4991444;28;20106;-87
2023/01/02 08:08:10;;;;;;;3.70;0.45;;;8.70;99.90;;;;;;4977595;28;20045;-89
2023/01/02 08:10:37;;;;;;;6.13;0.70;;;8.70;99.90;;;;;;4993134;28;20041;-88
2023/01/02 08:13:06;;;;;;;4.03;0.40;;;8.60;99.90;;;;;;5024778;28;20096;-87
2023/01/02 08:15:32;;;;;;;2.35;0.40;;;8.60;99.90;;;;;;5025679;28;20515;-85
2023/01/02 08:17:58;;;;;;;5.07;0.40;;;8.60;99.90;;;;;;5025109;28;20042;-82
2023/01/02 08:20:25;;;;;;;2.80;0.50;;;9.00;99.90;;;;;;5027226;28;20041;-82
2023/01/02 08:22:51;;;;;;;6.50;0.52;;;8.60;99.90;;;;;;5025844;28;20048;-82
2023/01/02 08:25:17;;;;;;;3.25;0.50;;;8.60;99.90;;;;;;5026728;28;20049;-83
2023/01/02 08:27:44;;;;;;;6.82;0.82;;;8.60;99.90;;;;;;5026459;28;20045;-84
2023/01/02 08:30:10;;;;;;;1.42;0.55;;;9.80;99.90;;;;;;5024934;28;20616;-82
2023/01/02 08:32:38;;;;;;;2.85;0.60;;;8.60;99.90;;;;;;5027058;28;20053;-84
2023/01/02 08:35:07;;;;;;;2.90;0.70;;;9.50;99.90;;;;;;5007318;28;20037;-83
2023/01/02 08:37:33;;;;;;;2.70;0.85;;;8.60;99.90;;;;;;5027188;28;20041;-82
2023/01/02 08:39:59;;;;;;;6.30;1.00;;;8.60;99.90;;;;;;5025604;28;20042;-82
2023/01/02 08:42:24;;;;;;;1.50;0.70;;;9.70;99.90;;;;;;5008721;28;20052;-82
2023/01/02 08:44:50;;;;;;;7.32;1.52;;;8.60;99.90;;;;;;5008793;28;20120;-84
2023/01/02 08:47:16;;;;;;;2.90;0.75;;;8.60;99.90;;;;;;5024900;28;20518;-83
2023/01/02 08:49:42;;;;;;;4.85;1.10;;;8.90;99.90;;;;;;4993915;28;20084;-86
2023/01/02 08:52:07;;;;;;;6.55;1.02;;;8.60;99.90;;;;;;5024494;28;20519;-85
2023/01/02 08:54:34;;;;;;;5.45;0.82;;;8.60;99.90;;;;;;5025579;28;20084;-84
2023/01/02 08:57:00;;;;;;;3.03;1.30;;;8.50;99.90;;;;;;5023499;28;20045;-83
2023/01/02 08:59:26;;;;;;;7.22;1.02;;;9.20;99.90;;;;;;5024678;28;20052;-84
2023/01/02 09:01:52;;;;;;;4.22;0.82;;;8.60;99.90;;;;;;5025784;28;20397;-85
2023/01/02 09:04:19;;;;;;;6.55;1.27;;;9.50;99.90;;;;;;5045311;28;20091;-83
2023/01/02 09:06:45;;;;;;;6.10;0.90;;;8.60;99.90;;;;;;5046272;28;20082;-88
2023/01/02 09:09:13;;;;;;;2.25;0.70;;;8.60;99.90;;;;;;4993501;28;20087;-86
2023/01/02 09:11:47;;;;;;;4.63;0.80;;;8.60;99.90;;;;;;5028729;28;20396;-87
2023/01/02 09:14:13;;;;;;;3.60;1.05;;;8.60;99.90;;;;;;5010552;28;20491;-82
2023/01/02 09:16:39;;;;;;;12.00;1.38;;;9.40;99.90;;;;;;5045841;28;20048;-84
2023/01/02 09:19:05;;;;;;;4.63;1.73;;;8.60;99.90;;;;;;5045327;28;20052;-88
2023/01/02 09:21:30;;;;;;;5.22;2.13;;;8.60;99.90;;;;;;5010816;28;20049;-85
2023/01/02 09:23:56;;;;;;;3.08;1.13;;;8.60;99.90;;;;;;5046014;28;20080;-83
2023/01/02 09:26:22;;;;;;;5.57;1.33;;;8.60;99.90;;;;;;5044148;28;20037;-83
2023/01/02 09:28:48;;;;;;;5.25;1.15;;;8.80;99.90;;;;;;5045949;28;20040;-83
2023/01/02 09:31:15;;;;;;;7.93;0.88;;;8.60;99.90;;;;;;5043927;28;20056;-84
2023/01/02 09:33:43;;;;;;;7.38;1.25;;;8.60;99.90;;;;;;5027644;28;20080;-82
2023/01/02 09:36:11;;;;;;;3.28;0.95;;;9.10;99.90;;;;;;5045045;28;20455;-85
2023/01/02 09:38:37;;;;;;;1.60;0.70;;;8.70;99.90;;;;;;5045427;28;20037;-85
2023/01/02 09:41:29;;;;;;;2.42;0.80;;;8.70;99.90;;;;;;5045407;28;20041;-83
2023/01/02 09:44:04;;;;;;;2.65;0.73;;;8.90;99.90;;;;;;5036947;28;20053;-83
2023/01/02 09:46:38;;;;;;;1.85;0.70;;;8.70;99.90;;;;;;5045293;28;20053;-83
2023/01/02 09:49:05;;;;;;;3.42;1.00;;;8.70;99.90;;;;;;5026958;28;20048;-82
2023/01/02 09:51:32;;;;;;;1.30;0.70;;;8.90;99.90;;;;;;5011087;28;20891;-94
2023/01/02 09:53:58;;;;;;;3.92;1.38;;;8.70;99.90;;;;;;5013970;28;20067;-94
2023/01/02 09:56:29;;;;;;;7.82;1.25;;;8.70;99.90;;;;;;5029733;28;20037;-92
2023/01/02 09:59:05;;;;;;;5.35;1.20;;;8.70;99.90;;;;;;5045959;28;20658;-85
2023/01/02 10:02:16;;;;;;;3.67;1.50;;;8.70;99.90;;;;;;5044313;28;20033;-82
2023/01/02 10:05:07;;;;;;;7.07;1.65;;;8.80;99.90;;;;;;4963543;28;20053;-83
2023/01/02 10:07:43;;;;;;;5.13;1.73;;;8.80;99.90;;;;;;5028792;28;20056;-90
2023/01/02 10:10:12;;;;;;;5.30;1.58;;;8.80;99.90;;;;;;5026989;28;20084;-86
2023/01/02 10:12:59;;;;;;;5.03;1.55;;;8.80;99.90;;;;;;5028313;28;20041;-92
2023/01/02 10:15:27;;;;;;;3.88;1.35;;;8.80;99.90;;;;;;5029009;28;20045;-90
2023/01/02 10:18:09;;;;;;;6.28;1.17;;;8.80;99.90;;;;;;5027003;28;20405;-86
2023/01/02 10:20:38;;;;;;;4.93;0.82;;;8.80;99.90;;;;;;5027107;28;20033;-83
2023/01/02 10:23:14;;;;;;;3.85;0.90;;;8.80;99.90;;;;;;5044172;28;20128;-84
2023/01/02 10:25:51;;;;;;;2.67;0.60;;;8.80;99.90;;;;;;5028867;28;20456;-83
2023/01/02 10:28:50;;;;;;;2.38;1.05;;;8.80;99.90;;;;;;5031166;28;20045;-82
2023/01/02 10:31:23;;;;;;;2.15;1.20;;;8.80;99.90;;;;;;5029366;28;20083;-83
2023/01/02 10:34:01;;;;;;;2.90;1.10;;;8.80;99.90;;;;;;5030559;28;20095;-87
2023/01/02 10:36:33;;;;;;;3.83;1.10;;;8.80;99.90;;;;;;5031690;28;20045;-88
2023/01/02 10:39:04;;;;;;;2.42;0.98;;;8.80;99.90;;;;;;5048565;28;20049;-92
2023/01/02 10:41:31;;;;;;;4.63;0.88;;;9.70;99.90;;;;;;5017811;28;20285;-94
2023/01/02 10:44:14;;;;;;;4.18;0.90;;;8.80;99.90;;;;;;5029860;28;20051;-91
2023/01/02 10:46:40;;;;;;;4.53;1.38;;;8.80;99.90;;;;;;5030919;28;20059;-91
2023/01/02 10:49:08;;;;;;;2.65;1.35;;;8.80;99.90;;;;;;4998121;28;20064;-94
2023/01/02 10:51:37;;;;;;;3.08;1.08;;;9.30;99.90;;;;;;5030439;28;20448;-88
2023/01/02 10:54:06;;;;;;;1.92;1.00;;;8.80;99.90;;;;;;5014241;28;20051;-85
2023/01/02 10:56:34;;;;;;;4.07;1.30;;;8.80;99.90;;;;;;5047034;28;20091;-86
2023/01/02 10:59:01;;;;;;;4.93;1.20;;;8.90;99.90;;;;;;5031019;28;20052;-86
2023/01/02 11:01:28;;;;;;;4.03;1.65;;;8.20;99.90;;;;;;5030298;28;20045;-85
2023/01/02 11:03:59;;;;;;;3.65;1.38;;;8.90;99.90;;;;;;5029984;28;20143;-85
2023/01/02 11:06:30;;;;;;;3.90;1.25;;;8.90;99.90;;;;;;5030041;28;20044;-82
2023/01/02 11:09:16;;;;;;;4.82;1.50;;;8.90;99.90;;;;;;5047193;28;20123;-84
2023/01/02 11:11:52;;;;;;;3.97;1.70;;;9.00;99.90;;;;;;5031133;28;20102;-84
2023/01/02 11:14:22;;;;;;;4.75;1.52;;;9.00;99.90;;;;;;5029370;28;20048;-85
2023/01/02 11:16:49;;;;;;;3.50;1.60;;;9.00;99.90;;;;;;5047914;28;20070;-83
2023/01/02 11:19:21;;;;;;;2.92;1.20;;;9.10;99.90;;;;;;5047792;28;20468;-86
2023/01/02 11:21:48;;;;;;;5.28;1.27;;;9.10;99.90;;;;;;5047234;28;20121;-84
2023/01/02 11:24:24;;;;;;;8.57;1.70;;;9.10;99.90;;;;;;5030626;28;20049;-84
2023/01/02 11:26:50;;;;;;;4.15;1.15;;;9.10;99.90;;;;;;5046590;28;20403;-83
2023/01/02 11:29:30;;;;;;;3.60;1.70;;;9.60;99.90;;;;;;5047771;28;20544;-84
2023/01/02 11:31:59;;;;;;;4.85;1.13;;;9.60;99.90;;;;;;5047794;28;20075;-84
2023/01/02 11:34:31;;;;;;;3.60;1.42;;;9.30;99.90;;;;;;5047681;28;20087;-84
2023/01/02 11:37:10;;;;;;;9.05;2.22;;;9.30;99.90;;;;;;5047654;28;20049;-84
2023/01/02 11:39:37;;;;;;;6.45;1.60;;;9.30;99.90;;;;;;5046107;28;20124;-84
2023/01/02 11:45:14;;;;;;;9.25;1.75;;;9.40;99.90;;;;;;5029664;28;20401;-85
2023/01/02 11:48:04;;;;;;;9.73;1.52;;;9.40;99.90;;;;;;5045985;28;20052;-86
2023/01/02 11:50:34;;;;;;;5.68;1.20;;;9.40;99.90;;;;;;5030072;28;20453;-85
2023/01/02 11:53:13;;;;;;;6.20;1.10;;;9.40;99.90;;;;;;5012448;28;20158;-86
2023/01/02 11:56:13;;;;;;;4.93;1.25;;;9.50;99.90;;;;;;5046857;28;20190;-85
2023/01/02 11:58:46;;;;;;;7.13;1.35;;;9.50;99.90;;;;;;5048004;28;20075;-85
2023/01/02 12:01:47;;;;;;;3.22;1.08;;;9.40;99.90;;;;;;5046718;28;20073;-85
2023/01/02 12:04:13;;;;;;;9.05;1.77;;;9.50;99.90;;;;;;4968278;28;20062;-86
2023/01/02 12:07:11;;;;;;;6.43;1.50;;;9.40;99.90;;;;;;5001059;28;20060;-85
2023/01/02 12:09:43;;;;;;;6.32;0.90;;;9.30;99.90;;;;;;4980917;28;20060;-85
2023/01/02 12:12:33;;;;;;;7.22;1.55;;;9.30;99.90;;;;;;5029424;28;20404;-85
2023/01/02 12:15:28;;;;;;;6.88;0.88;;;9.30;99.90;;;;;;5028956;28;20085;-85
2023/01/02 12:18:02;;;;;;;8.65;0.88;;;9.30;99.90;;;;;;5011019;28;20408;-85
2023/01/02 12:20:55;;;;;;;7.18;1.63;;;9.20;99.90;;;;;;5028941;28;20076;-85
2023/01/02 12:23:30;;;;;;;2.50;0.90;;;9.30;99.90;;;;;;5012451;28;20045;-85
2023/01/02 12:26:01;;;;;;;8.98;2.08;;;9.30;99.90;;;;;;5011070;28;20041;-85
2023/01/02 12:28:45;;;;;;;5.47;1.00;;;9.30;99.90;;;;;;5029014;28;20068;-84
2023/01/02 12:31:23;;;;;;;7.78;0.80;;;9.30;99.90;;;;;;5027463;28;20393;-84
2023/01/02 12:34:00;;;;;;;5.35;1.00;;;9.30;99.90;;;;;;5028103;28;20041;-82
2023/01/02 12:37:00;;;;;;;2.80;0.93;;;9.30;99.90;;;;;;5011799;28;20094;-84
2023/01/02 12:40:03;;;;;;;8.73;1.13;;;9.30;99.90;;;;;;5010549;28;20576;-84
2023/01/02 12:42:52;;;;;;;4.55;1.02;;;9.30;99.90;;;;;;5011939;28;20122;-82
2023/01/02 12:45:33;;;;;;;9.93;0.95;;;9.40;99.90;;;;;;5012845;28;20345;-86
2023/01/02 12:48:01;;;;;;;10.10;1.20;;;9.30;99.90;;;;;;5026231;28;20049;-83
2023/01/02 12:51:10;;;;;;;11.18;1.52;;;9.30;99.90;;;;;;5028912;28;20041;-84
2023/01/02 12:54:09;;;;;;;9.77;1.00;;;9.30;99.90;;;;;;5021064;28;20063;-86
2023/01/02 12:56:43;;;;;;;11.50;1.48;;;9.30;99.90;;;;;;5026767;28;20090;-83
2023/01/02 12:59:44;;;;;;;16.63;1.73;;;9.40;99.90;;;;;;5029178;28;20053;-83
2023/01/02 13:02:16;;;;;;;11.43;1.20;;;9.40;99.90;;;;;;5028202;28;20048;-82
2023/01/02 13:04:49;;;;;;;10.85;0.80;;;9.30;99.90;;;;;;5027241;28;20107;-83
2023/01/02 13:07:18;;;;;;;;;;;9.40;99.90;;;;;;5028713;28;20045;-83
2023/01/02 13:09:44;;;;;;;8.00;1.02;;;9.40;99.90;;;;;;5026082;28;19925;-84
2023/01/02 13:12:24;;;;;;;13.35;1.08;;;9.40;99.90;;;;;;5027754;28;20047;-83
2023/01/02 13:15:01;;;;;;;9.63;1.67;;;9.40;99.90;;;;;;5026958;28;20072;-85
2023/01/02 13:17:45;;;;;;;10.73;1.52;;;9.40;99.90;;;;;;5026378;28;20512;-84
2023/01/02 13:20:29;;;;;;;6.22;1.33;;;9.40;99.90;;;;;;5011468;28;20049;-84